createdAt,value
2023-04-27T00:00:09.497Z,29.03
2023-04-27T00:02:38.414Z,29.14
2023-04-27T00:05:11.741Z,29.16
2023-04-27T00:07:40.288Z,29.00
2023-04-27T00:10:11.151Z,29.11
2023-04-27T00:12:39.650Z,29.15
2023-04-27T00:15:10.076Z,28.96
2023-04-27T00:17:38.600Z,28.78
2023-04-27T00:20:11.908Z,29.03
2023-04-27T00:22:40.474Z,29.01
2023-04-27T00:25:10.024Z,29.13
2023-04-27T00:27:38.433Z,28.90
2023-04-27T00:30:08.689Z,28.83
2023-04-27T00:32:37.182Z,28.81
2023-04-27T00:35:10.111Z,28.90
2023-04-27T00:37:38.526Z,28.90
2023-04-27T00:40:09.110Z,28.87
2023-04-27T00:42:37.833Z,28.87
2023-04-27T00:45:07.684Z,28.75
2023-04-27T00:47:36.690Z,28.80
2023-04-27T00:50:08.815Z,28.89
2023-04-27T00:52:38.033Z,28.91
2023-04-27T00:55:08.430Z,28.88
2023-04-27T00:57:37.330Z,28.86
2023-04-27T01:00:07.981Z,28.91
2023-04-27T01:02:37.270Z,29.04
2023-04-27T01:05:08.726Z,29.12
2023-04-27T01:07:39.403Z,29.13
2023-04-27T01:10:09.689Z,29.00
2023-04-27T01:12:38.287Z,29.13
2023-04-27T01:15:09.366Z,29.01
2023-04-27T01:17:37.786Z,29.09
2023-04-27T01:20:10.508Z,29.14
2023-04-27T01:22:39.746Z,29.16
2023-04-27T01:25:11.123Z,29.06
2023-04-27T01:27:39.428Z,29.37
2023-04-27T01:30:09.486Z,29.36
2023-04-27T01:32:39.180Z,29.46
2023-04-27T01:35:08.624Z,29.43
2023-04-27T01:37:37.058Z,29.62
2023-04-27T01:40:07.537Z,29.48
2023-04-27T01:42:37.311Z,29.44
2023-04-27T01:45:07.184Z,29.51
2023-04-27T01:47:35.583Z,29.58
2023-04-27T01:50:04.346Z,29.70
2023-04-27T01:52:32.715Z,29.64
2023-04-27T01:55:01.033Z,29.86
2023-04-27T01:57:29.336Z,29.88
2023-04-27T01:59:58.996Z,30.05
2023-04-27T02:02:27.827Z,30.08
2023-04-27T02:04:56.329Z,30.19
2023-04-27T02:07:24.971Z,30.09
2023-04-27T02:09:53.303Z,30.17
2023-04-27T02:12:21.634Z,30.13
2023-04-27T02:14:49.937Z,30.12
2023-04-27T02:17:19.643Z,30.32
2023-04-27T02:19:47.972Z,30.30
2023-04-27T02:22:16.335Z,30.24
2023-04-27T02:24:44.655Z,30.43
2023-04-27T02:27:13.084Z,30.34
2023-04-27T02:29:41.910Z,30.51
2023-04-27T02:32:10.608Z,30.50
2023-04-27T02:34:40.615Z,30.58
2023-04-27T02:37:08.960Z,30.54
2023-04-27T02:39:37.287Z,30.79
2023-04-27T02:42:05.922Z,30.67
2023-04-27T02:44:34.239Z,30.65
2023-04-27T02:47:02.679Z,30.80
2023-04-27T02:49:31.992Z,31.03
2023-04-27T02:52:01.695Z,30.98
2023-04-27T02:54:30.105Z,31.09
2023-04-27T02:56:58.463Z,30.95
2023-04-27T02:59:26.847Z,31.27
2023-04-27T03:01:55.494Z,31.15
2023-04-27T03:04:23.959Z,30.91
2023-04-27T03:06:52.449Z,31.26
2023-04-27T03:09:22.165Z,30.99
2023-04-27T03:11:50.713Z,31.06
2023-04-27T03:14:19.399Z,31.28
2023-04-27T03:16:48.015Z,31.35
2023-04-27T03:19:16.764Z,31.45
2023-04-27T03:21:45.101Z,31.34
2023-04-27T03:24:13.403Z,31.28
2023-04-27T03:26:43.346Z,31.43
2023-04-27T03:29:11.847Z,31.46
2023-04-27T03:31:40.591Z,31.28
2023-04-27T03:34:08.930Z,31.40
2023-04-27T03:36:37.194Z,31.49
2023-04-27T03:39:05.666Z,31.24
2023-04-27T03:41:34.149Z,31.24
2023-04-27T03:44:04.258Z,31.58
2023-04-27T03:46:32.804Z,31.30
2023-04-27T03:49:01.453Z,31.49
2023-04-27T03:51:32.141Z,31.73
2023-04-27T03:54:00.917Z,31.80
2023-04-27T03:56:29.251Z,31.65
2023-04-27T03:58:57.581Z,31.90
2023-04-27T04:01:27.674Z,31.97
2023-04-27T04:03:56.655Z,31.80
2023-04-27T04:06:25.104Z,31.78
2023-04-27T04:08:53.436Z,31.81
2023-04-27T04:11:22.563Z,31.75
2023-04-27T04:13:51.175Z,32.02
2023-04-27T04:16:19.600Z,31.67
2023-04-27T04:18:49.802Z,31.88
2023-04-27T04:21:18.096Z,31.86
2023-04-27T04:23:46.486Z,31.67
2023-04-27T04:26:15.036Z,31.91
2023-04-27T04:28:44.211Z,31.59
2023-04-27T04:31:13.578Z,31.75
2023-04-27T04:33:41.984Z,31.44
2023-04-27T04:36:12.097Z,31.46
2023-04-27T04:38:40.750Z,31.17
2023-04-27T04:41:10.197Z,31.33
2023-04-27T04:43:38.607Z,31.02
2023-04-27T04:46:08.050Z,30.79
2023-04-27T04:48:37.945Z,30.68
2023-04-27T04:51:07.441Z,30.58
2023-04-27T04:53:38.095Z,30.54
2023-04-27T04:56:14.167Z,30.63
2023-04-27T04:58:42.578Z,30.55
2023-04-27T05:01:11.750Z,30.68
2023-04-27T05:03:40.821Z,30.78
2023-04-27T05:06:09.568Z,30.74
2023-04-27T05:08:39.338Z,30.76
2023-04-27T05:11:09.184Z,30.83
2023-04-27T05:13:38.431Z,30.79
2023-04-27T05:16:07.400Z,30.77
2023-04-27T05:18:36.354Z,30.63
2023-04-27T05:21:05.487Z,30.59
2023-04-27T05:23:33.855Z,30.64
2023-04-27T05:26:11.941Z,30.64
2023-04-27T05:28:40.427Z,30.53
2023-04-27T05:31:09.014Z,30.63
2023-04-27T05:33:37.722Z,30.60
2023-04-27T05:36:06.942Z,30.71
2023-04-27T05:38:36.231Z,30.81
2023-04-27T05:41:06.059Z,30.66
2023-04-27T05:43:35.127Z,30.94
2023-04-27T05:46:03.600Z,30.76
2023-04-27T05:48:32.104Z,30.77
2023-04-27T05:51:04.565Z,30.86
2023-04-27T05:53:35.754Z,30.88
2023-04-27T05:56:06.875Z,30.79
2023-04-27T05:58:35.551Z,30.86
2023-04-27T06:01:04.434Z,30.41
2023-04-27T06:03:33.249Z,30.54
2023-04-27T06:06:03.314Z,30.32
2023-04-27T06:08:31.867Z,29.86
2023-04-27T06:11:00.225Z,29.83
2023-04-27T06:13:29.978Z,29.32
2023-04-27T06:15:58.447Z,29.18
2023-04-27T06:18:26.780Z,28.93
2023-04-27T06:20:59.453Z,28.88
2023-04-27T06:23:27.881Z,28.72
2023-04-27T06:25:56.298Z,28.54
2023-04-27T06:28:24.691Z,28.46
2023-04-27T06:30:55.573Z,28.30
2023-04-27T06:33:23.863Z,28.28
2023-04-27T06:35:52.294Z,28.09
2023-04-27T06:38:20.664Z,27.94
2023-04-27T06:40:53.463Z,27.85
2023-04-27T06:43:21.917Z,27.58
2023-04-27T06:45:50.462Z,27.63
2023-04-27T06:48:20.420Z,27.47
2023-04-27T06:50:49.061Z,27.49
2023-04-27T06:53:18.133Z,27.33
2023-04-27T06:55:48.416Z,27.24
2023-04-27T06:58:17.153Z,26.92
2023-04-27T07:00:45.713Z,26.72
2023-04-27T07:03:14.814Z,26.67
2023-04-27T07:05:45.140Z,26.20
2023-04-27T07:08:14.511Z,26.00
2023-04-27T07:10:43.253Z,25.78
2023-04-27T07:13:12.603Z,25.58
2023-04-27T07:15:42.647Z,25.38
2023-04-27T07:18:12.213Z,24.91
2023-04-27T07:20:41.892Z,24.82
2023-04-27T07:23:11.634Z,24.87
2023-04-27T07:25:40.504Z,24.77
2023-04-27T07:28:09.072Z,24.68
2023-04-27T07:30:37.579Z,24.16
2023-04-27T07:33:06.193Z,24.02
2023-04-27T07:35:34.829Z,24.14
2023-04-27T07:38:03.870Z,24.13
2023-04-27T07:43:03.081Z,23.77
2023-04-27T07:45:33.117Z,23.67
2023-04-27T07:48:02.997Z,23.18
2023-04-27T07:50:32.118Z,23.06
2023-04-27T07:53:01.107Z,22.85
2023-04-27T07:55:29.888Z,22.65
2023-04-27T07:57:59.730Z,22.82
2023-04-27T08:00:28.375Z,22.61
2023-04-27T08:02:57.437Z,22.65
2023-04-27T08:05:26.556Z,22.36
2023-04-27T08:07:55.183Z,21.99
2023-04-27T08:10:24.394Z,22.18
2023-04-27T08:12:52.943Z,22.11
2023-04-27T08:15:23.118Z,22.20
2023-04-27T08:17:51.570Z,22.05
2023-04-27T08:20:20.516Z,22.05
2023-04-27T08:22:48.929Z,21.87
2023-04-27T08:25:17.359Z,21.94
2023-04-27T08:27:45.832Z,21.48
2023-04-27T08:30:15.223Z,21.17
2023-04-27T08:32:45.087Z,21.43
2023-04-27T08:35:14.882Z,21.12
2023-04-27T08:37:44.302Z,20.75
2023-04-27T08:40:13.992Z,20.90
2023-04-27T08:42:56.222Z,20.33
2023-04-27T08:45:25.172Z,20.71
2023-04-27T08:47:55.755Z,20.37
2023-04-27T08:50:24.652Z,20.57
2023-04-27T08:52:53.479Z,20.62
2023-04-27T08:55:22.227Z,20.34
2023-04-27T08:57:58.299Z,20.33
2023-04-27T09:00:39.689Z,20.03
2023-04-27T09:03:10.468Z,20.16
2023-04-27T09:06:00.580Z,20.38
2023-04-27T09:08:44.548Z,20.08
2023-04-27T09:11:15.029Z,20.19
2023-04-27T09:13:45.622Z,19.84
2023-04-27T09:16:15.346Z,19.73
2023-04-27T09:18:45.493Z,19.59
2023-04-27T09:21:24.728Z,19.17
2023-04-27T09:23:53.765Z,19.37
2023-04-27T09:26:24.226Z,19.39
2023-04-27T09:28:57.514Z,19.29
2023-04-27T09:31:33.139Z,19.00
2023-04-27T09:34:04.004Z,19.05
2023-04-27T09:36:33.447Z,19.17
2023-04-27T09:39:06.111Z,19.11
2023-04-27T09:41:35.300Z,18.92
2023-04-27T09:44:05.929Z,18.95
2023-04-27T09:46:35.655Z,18.44
2023-04-27T09:49:06.954Z,18.27
2023-04-27T09:51:36.028Z,18.28
2023-04-27T09:54:06.026Z,18.09
2023-04-27T09:56:53.116Z,18.07
2023-04-27T09:59:42.948Z,18.15
2023-04-27T10:02:24.692Z,17.84
2023-04-27T10:05:26.898Z,17.57
2023-04-27T10:07:55.733Z,17.41
2023-04-27T10:10:24.083Z,17.49
2023-04-27T10:13:01.825Z,17.61
2023-04-27T10:15:32.046Z,17.61
2023-04-27T10:18:07.454Z,17.44
2023-04-27T10:20:38.722Z,17.51
2023-04-27T10:23:07.300Z,17.79
2023-04-27T10:25:41.371Z,17.59
2023-04-27T10:28:16.378Z,17.58
2023-04-27T10:30:49.119Z,17.71
2023-04-27T10:33:20.306Z,17.38
2023-04-27T10:35:59.049Z,16.99
2023-04-27T10:38:33.159Z,16.27
2023-04-27T10:41:05.501Z,15.83
2023-04-27T10:43:37.440Z,15.96
2023-04-27T10:46:10.864Z,15.90
2023-04-27T10:48:40.875Z,16.00
2023-04-27T10:51:11.222Z,15.69
2023-04-27T10:53:39.816Z,15.98
2023-04-27T10:56:08.848Z,15.83
2023-04-27T11:01:10.497Z,16.06
2023-04-27T11:03:39.088Z,16.19
2023-04-27T11:06:08.690Z,16.17
2023-04-27T11:08:45.658Z,15.76
2023-04-27T11:11:16.922Z,15.99
2023-04-27T11:13:46.474Z,15.83
2023-04-27T11:16:14.967Z,16.07
2023-04-27T11:18:43.947Z,16.19
2023-04-27T11:21:15.073Z,15.68
2023-04-27T11:23:45.238Z,15.93
2023-04-27T11:26:16.184Z,15.88
2023-04-27T11:28:45.906Z,15.42
2023-04-27T11:31:14.538Z,15.01
2023-04-27T11:33:49.940Z,14.96
2023-04-27T11:36:19.197Z,14.52
2023-04-27T11:38:49.111Z,14.28
2023-04-27T11:41:17.758Z,13.70
2023-04-27T11:43:49.509Z,13.38
2023-04-27T11:46:22.420Z,13.29
2023-04-27T11:48:51.066Z,13.46
2023-04-27T11:51:19.474Z,13.46
2023-04-27T11:53:51.255Z,13.61
2023-04-27T11:56:19.580Z,13.37
2023-04-27T11:58:47.986Z,13.20
2023-04-27T12:01:22.020Z,12.52
2023-04-27T12:04:02.251Z,12.54
2023-04-27T12:06:33.148Z,12.50
2023-04-27T12:09:04.208Z,11.66
2023-04-27T12:11:32.823Z,11.27
2023-04-27T12:14:01.228Z,10.96
2023-04-27T12:16:29.772Z,11.70
2023-04-27T12:18:58.179Z,11.66
2023-04-27T12:21:26.874Z,11.69
2023-04-27T12:23:55.272Z,11.29
2023-04-27T12:26:25.631Z,11.45
2023-04-27T12:28:54.078Z,11.21
2023-04-27T12:31:26.863Z,11.05
2023-04-27T12:33:56.194Z,11.37
2023-04-27T12:36:24.659Z,10.75
2023-04-27T12:38:53.488Z,9.99
2023-04-27T12:41:23.409Z,10.19
2023-04-27T12:43:53.291Z,10.25
2023-04-27T12:46:21.822Z,9.77
2023-04-27T12:48:50.284Z,9.64
2023-04-27T12:51:19.896Z,9.58
2023-04-27T12:53:48.284Z,9.50
2023-04-27T12:56:16.851Z,9.68
2023-04-27T12:58:45.677Z,9.71
2023-04-27T13:01:15.790Z,9.71
2023-04-27T13:03:44.770Z,9.83
2023-04-27T13:06:13.315Z,9.41
2023-04-27T13:08:42.827Z,9.05
2023-04-27T13:11:11.586Z,8.88
2023-04-27T13:13:40.063Z,9.14
2023-04-27T13:16:08.954Z,8.31
2023-04-27T13:18:38.741Z,7.98
2023-04-27T13:21:07.478Z,7.77
2023-04-27T13:23:36.071Z,7.47
2023-04-27T13:26:04.687Z,7.12
2023-04-27T13:28:33.074Z,7.30
2023-04-27T13:31:01.730Z,7.87
2023-04-27T13:33:30.369Z,7.88
2023-04-27T13:36:02.263Z,7.09
2023-04-27T13:38:30.922Z,7.44
2023-04-27T13:40:59.376Z,6.24
2023-04-27T13:43:28.065Z,6.62
2023-04-27T13:45:57.776Z,6.45
2023-04-27T13:48:27.556Z,6.41
2023-04-27T13:50:56.392Z,6.50
2023-04-27T13:53:26.964Z,6.65
2023-04-27T13:55:56.664Z,6.35
2023-04-27T13:58:26.404Z,5.38
2023-04-27T14:00:55.127Z,5.50
2023-04-27T14:03:23.739Z,5.66
2023-04-27T14:05:52.420Z,5.59
2023-04-27T14:08:21.189Z,6.32
2023-04-27T14:10:51.284Z,6.41
2023-04-27T14:13:20.506Z,6.06
2023-04-27T14:15:48.971Z,6.02
2023-04-27T14:18:17.383Z,6.38
2023-04-27T14:20:46.525Z,7.02
2023-04-27T14:23:14.914Z,6.87
2023-04-27T14:25:43.279Z,6.66
2023-04-27T14:28:14.706Z,6.93
2023-04-27T14:30:43.162Z,7.18
2023-04-27T14:33:11.520Z,6.78
2023-04-27T14:35:39.993Z,6.40
2023-04-27T14:38:08.704Z,6.55
2023-04-27T14:40:37.127Z,6.84
2023-04-27T14:43:05.600Z,6.41
2023-04-27T14:45:47.712Z,6.06
2023-04-27T14:48:16.620Z,6.09
2023-04-27T14:50:45.122Z,6.05
2023-04-27T14:53:13.517Z,5.84
2023-04-27T14:55:44.222Z,6.42
2023-04-27T14:58:12.700Z,7.12
2023-04-27T15:00:42.568Z,7.71
2023-04-27T15:03:12.077Z,7.94
2023-04-27T15:05:40.867Z,8.92
2023-04-27T15:08:09.186Z,9.36
2023-04-27T15:10:37.532Z,9.75
2023-04-27T15:13:05.839Z,10.37
2023-04-27T15:15:34.207Z,10.63
2023-04-27T15:18:04.122Z,11.16
2023-04-27T15:20:32.641Z,11.58
2023-04-27T15:23:01.177Z,11.18
2023-04-27T15:25:29.714Z,11.43
2023-04-27T15:27:58.491Z,12.05
2023-04-27T15:30:27.128Z,11.94
2023-04-27T15:32:55.909Z,12.49
2023-04-27T15:35:25.896Z,12.72
2023-04-27T15:37:54.240Z,12.96
2023-04-27T15:40:22.910Z,13.07
2023-04-27T15:42:51.277Z,13.68
2023-04-27T15:45:20.015Z,13.58
2023-04-27T15:47:48.421Z,13.76
2023-04-27T15:50:18.100Z,13.77
2023-04-27T15:52:47.897Z,14.00
2023-04-27T15:55:16.665Z,13.96
2023-04-27T15:57:45.088Z,14.18
2023-04-27T16:00:16.749Z,14.35
2023-04-27T16:02:45.266Z,14.33
2023-04-27T16:05:13.739Z,14.73
2023-04-27T16:07:44.304Z,14.71
2023-04-27T16:10:14.330Z,14.88
2023-04-27T16:12:43.093Z,15.09
2023-04-27T16:15:12.397Z,15.09
2023-04-27T16:17:41.035Z,15.17
2023-04-27T16:20:10.262Z,15.15
2023-04-27T16:22:39.048Z,15.52
2023-04-27T16:25:11.209Z,15.20
2023-04-27T16:27:41.334Z,15.60
2023-04-27T16:30:10.849Z,15.53
2023-04-27T16:32:39.604Z,15.68
2023-04-27T16:35:09.502Z,15.84
2023-04-27T16:37:38.339Z,16.23
2023-04-27T16:40:08.782Z,15.87
2023-04-27T16:42:37.142Z,16.62
2023-04-27T16:45:10.689Z,16.61
2023-04-27T16:47:39.730Z,16.57
2023-04-27T16:50:08.880Z,16.46
2023-04-27T16:52:37.310Z,16.77
2023-04-27T16:55:07.544Z,16.66
2023-04-27T16:57:35.958Z,16.89
2023-04-27T17:00:06.212Z,16.91
2023-04-27T17:02:36.090Z,17.52
2023-04-27T17:05:04.774Z,17.24
2023-04-27T17:07:33.607Z,17.47
2023-04-27T17:10:02.009Z,17.35
2023-04-27T17:12:30.327Z,17.43
2023-04-27T17:14:58.734Z,17.51
2023-04-27T17:17:27.186Z,17.58
2023-04-27T17:19:57.152Z,17.52
2023-04-27T17:22:25.848Z,17.76
2023-04-27T17:24:54.278Z,17.61
2023-04-27T17:27:23.480Z,17.93
2023-04-27T17:29:57.693Z,17.84
2023-04-27T17:32:26.529Z,18.11
2023-04-27T17:34:57.568Z,17.83
2023-04-27T17:37:26.795Z,18.13
2023-04-27T17:39:55.209Z,17.86
2023-04-27T17:42:23.649Z,18.01
2023-04-27T17:44:52.196Z,17.88
2023-04-27T17:47:22.362Z,18.18
2023-04-27T17:49:50.776Z,18.10
2023-04-27T17:52:20.993Z,18.26
2023-04-27T17:54:49.616Z,18.14
2023-04-27T17:57:17.930Z,18.21
2023-04-27T17:59:46.706Z,18.32
2023-04-27T18:02:15.577Z,18.19
2023-04-27T18:04:44.369Z,18.43
2023-04-27T18:07:14.900Z,18.54
2023-04-27T18:09:45.218Z,18.71
2023-04-27T18:12:13.815Z,18.82
2023-04-27T18:14:42.207Z,19.30
2023-04-27T18:17:11.029Z,19.17
2023-04-27T18:19:41.000Z,19.21
2023-04-27T18:22:10.224Z,19.25
2023-04-27T18:24:38.667Z,19.34
2023-04-27T18:27:09.869Z,19.43
2023-04-27T18:29:39.598Z,19.52
2023-04-27T18:32:08.338Z,19.57
2023-04-27T18:34:37.376Z,19.71
2023-04-27T18:37:06.493Z,19.77
2023-04-27T18:39:34.895Z,19.95
2023-04-27T18:42:05.900Z,19.92
2023-04-27T18:44:36.428Z,19.97
2023-04-27T18:47:06.270Z,20.08
2023-04-27T18:49:34.608Z,20.10
2023-04-27T18:52:03.949Z,20.15
2023-04-27T18:54:33.700Z,20.25
2023-04-27T18:57:06.724Z,20.24
2023-04-27T18:59:38.326Z,20.39
2023-04-27T19:02:08.862Z,20.56
2023-04-27T19:04:41.112Z,20.58
2023-04-27T19:07:14.431Z,20.63
2023-04-27T19:09:43.594Z,20.77
2023-04-27T19:12:12.917Z,20.83
2023-04-27T19:14:43.277Z,20.93
2023-04-27T19:17:12.835Z,21.06
2023-04-27T19:19:41.769Z,21.08
2023-04-27T19:22:11.389Z,21.16
2023-04-27T19:24:40.088Z,21.08
2023-04-27T19:27:10.724Z,21.25
2023-04-27T19:29:53.867Z,21.17
2023-04-27T19:32:25.717Z,21.35
2023-04-27T19:34:55.156Z,21.44
2023-04-27T19:37:23.837Z,21.35
2023-04-27T19:39:52.568Z,21.27
2023-04-27T19:42:21.628Z,21.34
2023-04-27T19:44:51.536Z,21.59
2023-04-27T19:47:20.226Z,21.36
2023-04-27T19:49:48.783Z,21.55
2023-04-27T19:52:18.286Z,21.63
2023-04-27T19:54:52.288Z,21.65
2023-04-27T19:57:21.263Z,21.70
2023-04-27T19:59:51.723Z,21.86
2023-04-27T20:02:20.314Z,21.71
2023-04-27T20:04:49.018Z,21.73
2023-04-27T20:07:17.683Z,21.94
2023-04-27T20:09:46.103Z,21.88
2023-04-27T20:12:29.244Z,21.96
2023-04-27T20:15:04.803Z,22.13
2023-04-27T20:17:33.241Z,22.18
2023-04-27T20:20:02.156Z,22.13
2023-04-27T20:22:30.573Z,22.35
2023-04-27T20:25:00.264Z,22.23
2023-04-27T20:27:28.680Z,22.28
2023-04-27T20:29:56.993Z,22.42
2023-04-27T20:32:26.860Z,22.39
2023-04-27T20:34:55.317Z,22.34
2023-04-27T20:37:24.880Z,22.55
2023-04-27T20:39:53.449Z,22.40
2023-04-27T20:42:21.953Z,22.53
2023-04-27T20:44:50.522Z,22.45
2023-04-27T20:47:18.886Z,22.64
2023-04-27T20:49:48.677Z,22.69
2023-04-27T20:52:17.204Z,22.77
2023-04-27T20:54:45.722Z,22.91
2023-04-27T20:57:14.526Z,22.96
2023-04-27T20:59:42.971Z,23.31
2023-04-27T21:02:11.533Z,23.18
2023-04-27T21:04:40.421Z,23.53
2023-04-27T21:07:10.366Z,23.58
2023-04-27T21:09:39.122Z,23.50
2023-04-27T21:12:08.677Z,23.53
2023-04-27T21:14:37.525Z,23.78
2023-04-27T21:17:06.105Z,23.73
2023-04-27T21:19:34.612Z,24.03
2023-04-27T21:22:03.064Z,23.95
2023-04-27T21:24:32.905Z,24.13
2023-04-27T21:27:01.843Z,24.18
2023-04-27T21:29:30.324Z,24.23
2023-04-27T21:31:58.739Z,24.50
2023-04-27T21:34:27.095Z,24.54
2023-04-27T21:36:55.632Z,24.64
2023-04-27T21:39:24.030Z,24.73
2023-04-27T21:41:53.848Z,24.79
2023-04-27T21:44:22.297Z,24.69
2023-04-27T21:46:51.469Z,25.13
2023-04-27T21:49:20.097Z,24.83
2023-04-27T21:51:48.524Z,25.14
2023-04-27T21:54:17.133Z,25.20
2023-04-27T21:56:45.844Z,25.48
2023-04-27T21:59:15.549Z,25.32
2023-04-27T22:01:43.966Z,25.36
2023-04-27T22:04:12.573Z,25.55
2023-04-27T22:06:41.098Z,25.72
2023-04-27T22:09:09.497Z,25.49
2023-04-27T22:11:37.903Z,25.62
2023-04-27T22:14:06.412Z,25.61
2023-04-27T22:16:36.514Z,25.79
2023-04-27T22:19:04.983Z,25.80
2023-04-27T22:21:33.327Z,26.03
2023-04-27T22:24:01.668Z,25.91
2023-04-27T22:26:29.987Z,25.86
2023-04-27T22:28:58.782Z,26.37
2023-04-27T22:31:27.233Z,26.09
2023-04-27T22:33:57.100Z,26.01
2023-04-27T22:36:25.875Z,26.16
2023-04-27T22:38:54.253Z,26.22
2023-04-27T22:41:22.583Z,26.30
2023-04-27T22:43:51.072Z,26.33
2023-04-27T22:46:19.407Z,26.43
2023-04-27T22:48:47.727Z,26.45
2023-04-27T22:51:17.682Z,26.41
2023-04-27T22:53:46.201Z,26.39
2023-04-27T22:56:14.530Z,26.54
2023-04-27T22:58:42.861Z,26.43
2023-04-27T23:01:11.248Z,26.40
2023-04-27T23:03:40.097Z,26.41
2023-04-27T23:06:14.252Z,26.55
2023-04-27T23:08:47.132Z,26.53
2023-04-27T23:11:18.891Z,26.60
2023-04-27T23:13:50.677Z,26.71
2023-04-27T23:16:19.001Z,26.54
2023-04-27T23:18:47.363Z,26.88
2023-04-27T23:21:15.733Z,27.01
2023-04-27T23:23:45.583Z,26.97
2023-04-27T23:26:15.019Z,26.87
2023-04-27T23:28:44.362Z,26.94
2023-04-27T23:31:12.779Z,27.08
2023-04-27T23:33:41.179Z,27.08
2023-04-27T23:36:09.878Z,26.99
2023-04-27T23:38:38.178Z,27.12
2023-04-27T23:41:07.981Z,27.36
2023-04-27T23:43:36.348Z,27.28
2023-04-27T23:46:05.826Z,27.43
2023-04-27T23:48:34.240Z,27.35
2023-04-27T23:51:04.497Z,27.40
2023-04-27T23:53:32.995Z,27.42
2023-04-27T23:56:01.341Z,27.51
2023-04-27T23:58:31.100Z,27.68
